Allyn, WA (98524)

9:25 PM PDT on April 30, 2017 (GMT -0700)
Allyn View Estates | | Change Station

Elev 50 ft 47.38 °N, 122.83 °W | Updated 2 seconds ago

Mostly Cloudy
Mostly Cloudy
49.3 °F
Feels Like 49 °F
N
0.0
Wind Variable Wind from WSW

Today
High -- | Low -- °F
--% Chance of Precip.
Yesterday
High -- | Low -- °F
Precip. -- in
Pressure 30.37 in
Visibility 10.0 miles
Clouds Few 3400 ft
Overcast 4900 ft
Windchill 49 °F
Dew Point 45 °F
Humidity 85%
Rainfall 0.09 in
Snow Depth Not available.
5:55 AM 8:22 PM
Waxing Crescent, 29% visible
METAR KPWT 010356Z AUTO 06006KT 10SM FEW034 OVC049 09/06 A3032 RMK AO2 SLP284 T00890061
Pressure 30.37 in
Visibility 10.0 miles
Clouds Few 3400 ft
Overcast 4900 ft
Windchill 49 °F
Dew Point 45 °F
Humidity 85%
Rainfall 0.09 in
Snow Depth Not available.
5:55 AM 8:22 PM
Waxing Crescent, 29% visible
METAR KPWT 010356Z AUTO 06006KT 10SM FEW034 OVC049 09/06 A3032 RMK AO2 SLP284 T00890061

Get Severe Weather Alerts

Thanks for signing up!

Be on the lookout for a verification email in your inbox.

You'll start receiving the daily forecast at 8 AM.

×

10-Day Weather Forecast

Almanac

Astronomy

Apr. 30, 2017 Rise Set
Actual Time
Civil Twilight
Nautical Twilight
Astronomical Twilight
Moon
Length of Visible Light
Length of Day
Tomorrow will be .
, % of the Moon is Illuminated

Today's Extremes

State Highs State Lows

Community

WunderPhotos

WunderBlog® & News

Nearby

Air Quality

  Air Quality AQ Index Pollutant
Not available.

Snow Depth

Station Depth Elevation

Earthquake Activity

City Distance Mag. Time & Date
Minimum magnitude displayed is 2.5.

Coastal Water Temperatures

Place Temperature

Stations

Nearby Weather Stations

Station Location Temp. Windchill Dew Point Humidity Wind Precip. Elev Updated Type
                   

Watches & Warnings

There are currently no watches in effect.